createdAt,value
2019-05-29T00:00:44.098Z,2.85
2019-05-29T00:04:00.808Z,2.33
2019-05-29T00:07:18.471Z,2.62
2019-05-29T00:10:35.581Z,2.42
2019-05-29T00:13:52.594Z,2.10
2019-05-29T00:17:10.413Z,2.20
2019-05-29T00:20:27.146Z,2.05
2019-05-29T00:23:43.751Z,1.70
2019-05-29T00:27:00.388Z,2.15
2019-05-29T00:30:17.496Z,2.00
2019-05-29T00:33:34.251Z,2.08
2019-05-29T00:36:50.929Z,2.20
2019-05-29T00:40:08.951Z,2.15
2019-05-29T00:43:25.675Z,2.10
2019-05-29T00:46:42.286Z,1.72
2019-05-29T00:49:59.222Z,2.08
2019-05-29T00:53:16.359Z,1.90
2019-05-29T00:56:33.094Z,2.20
2019-05-29T00:59:49.807Z,2.00
2019-05-29T01:03:06.457Z,1.80
2019-05-29T01:06:23.245Z,2.27
2019-05-29T01:09:39.858Z,1.72
2019-05-29T01:12:56.591Z,1.90
2019-05-29T01:16:13.404Z,2.10
2019-05-29T01:19:30.048Z,2.15
2019-05-29T01:22:46.794Z,2.10
2019-05-29T01:26:03.632Z,1.60
2019-05-29T01:29:21.221Z,2.27
2019-05-29T01:32:37.852Z,2.00
2019-05-29T01:35:54.570Z,2.37
2019-05-29T01:39:12.120Z,1.98
2019-05-29T01:42:28.850Z,1.92
2019-05-29T01:45:45.467Z,1.95
2019-05-29T01:49:02.195Z,2.10
2019-05-29T01:52:19.657Z,1.95
2019-05-29T01:55:36.326Z,2.15
2019-05-29T01:58:53.030Z,2.05
2019-05-29T02:02:10.039Z,1.45
2019-05-29T02:05:26.686Z,1.70
2019-05-29T02:08:43.283Z,1.85
2019-05-29T02:11:59.955Z,1.85
2019-05-29T02:15:31.490Z,2.12
2019-05-29T02:18:39.017Z,1.45
2019-05-29T02:21:55.667Z,2.10
2019-05-29T02:25:15.802Z,1.92
2019-05-29T02:28:31.017Z,1.75
2019-05-29T02:31:47.721Z,1.72
2019-05-29T02:35:04.346Z,2.00
2019-05-29T02:38:22.705Z,2.37
2019-05-29T02:41:39.550Z,1.98
2019-05-29T02:44:56.200Z,1.80
2019-05-29T02:48:12.796Z,1.92
2019-05-29T02:51:30.428Z,1.90
2019-05-29T02:54:47.138Z,2.10
2019-05-29T02:58:04.114Z,2.12
2019-05-29T03:01:21.542Z,1.67
2019-05-29T03:04:38.717Z,2.02
2019-05-29T03:07:55.388Z,2.20
2019-05-29T03:11:12.101Z,1.90
2019-05-29T03:14:31.636Z,2.35
2019-05-29T03:17:49.212Z,1.57
2019-05-29T03:21:05.825Z,2.33
2019-05-29T03:24:24.388Z,2.05
2019-05-29T03:27:40.881Z,1.80
2019-05-29T03:30:57.501Z,2.50
2019-05-29T03:34:14.215Z,2.40
2019-05-29T03:37:32.353Z,2.08
2019-05-29T03:40:49.061Z,2.40
2019-05-29T03:44:10.114Z,2.05
2019-05-29T03:47:24.125Z,2.02
2019-05-29T03:50:40.773Z,2.27
2019-05-29T03:53:57.419Z,2.02
2019-05-29T03:57:14.067Z,2.00
2019-05-29T04:00:38.739Z,2.72
2019-05-29T04:03:49.470Z,2.40
2019-05-29T04:07:06.149Z,2.12
2019-05-29T04:10:24.387Z,2.42
2019-05-29T04:13:41.209Z,2.45
2019-05-29T04:17:00.247Z,2.10
2019-05-29T04:20:24.212Z,2.22
2019-05-29T04:23:43.373Z,1.80
2019-05-29T04:27:01.095Z,2.58
2019-05-29T04:30:21.955Z,2.42
2019-05-29T04:33:38.975Z,2.58
2019-05-29T04:36:55.748Z,2.55
2019-05-29T04:40:12.680Z,2.10
2019-05-29T04:43:30.889Z,2.55
2019-05-29T04:46:47.804Z,2.62
2019-05-29T04:50:04.494Z,2.27
2019-05-29T04:53:21.332Z,2.40
2019-05-29T04:56:39.692Z,2.62
2019-05-29T04:59:56.416Z,2.70
2019-05-29T05:03:13.089Z,2.10
2019-05-29T05:06:31.096Z,2.50
2019-05-29T05:09:47.728Z,2.15
2019-05-29T05:13:04.418Z,2.70
2019-05-29T05:16:21.022Z,2.42
2019-05-29T05:19:38.228Z,2.12
2019-05-29T05:22:55.106Z,2.22
2019-05-29T05:26:12.496Z,2.12
2019-05-29T05:29:30.131Z,2.40
2019-05-29T05:32:46.779Z,2.35
2019-05-29T05:36:03.400Z,2.47
2019-05-29T05:39:20.517Z,2.67
2019-05-29T05:42:37.337Z,2.12
2019-05-29T05:45:54.017Z,2.60
2019-05-29T05:49:10.620Z,2.35
2019-05-29T05:52:27.816Z,2.40
2019-05-29T05:55:44.643Z,2.35
2019-05-29T05:59:01.373Z,2.30
2019-05-29T06:02:18.302Z,2.33
2019-05-29T06:05:36.062Z,2.12
2019-05-29T06:08:52.959Z,2.00
2019-05-29T06:12:09.609Z,2.33
2019-05-29T06:15:26.417Z,1.90
2019-05-29T06:18:43.311Z,2.17
2019-05-29T06:21:59.907Z,1.82
2019-05-29T06:25:18.139Z,1.85
2019-05-29T06:28:35.286Z,2.42
2019-05-29T06:31:51.871Z,2.00
2019-05-29T06:35:09.104Z,2.30
2019-05-29T06:38:25.938Z,1.62
2019-05-29T06:41:44.228Z,2.00
2019-05-29T06:45:01.312Z,1.72
2019-05-29T06:48:40.525Z,1.95
2019-05-29T06:51:39.611Z,1.80
2019-05-29T06:54:56.373Z,1.70
2019-05-29T06:58:13.590Z,1.67
2019-05-29T07:01:30.499Z,1.42
2019-05-29T07:04:47.296Z,2.00
2019-05-29T07:08:18.134Z,1.47
2019-05-29T07:11:22.673Z,1.32
2019-05-29T07:14:40.326Z,1.62
2019-05-29T07:17:57.121Z,1.50
2019-05-29T07:21:16.756Z,1.50
2019-05-29T07:24:33.456Z,1.67
2019-05-29T07:27:51.618Z,1.50
2019-05-29T07:31:08.590Z,1.52
2019-05-29T07:34:25.205Z,1.40
2019-05-29T07:37:41.851Z,1.42
2019-05-29T07:40:58.480Z,1.52
2019-05-29T07:44:15.217Z,1.50
2019-05-29T07:47:32.476Z,1.67
2019-05-29T07:50:49.246Z,1.45
2019-05-29T07:54:06.587Z,1.45
2019-05-29T07:57:23.195Z,1.87
2019-05-29T08:01:01.056Z,1.32
2019-05-29T08:07:52.338Z,1.47
2019-05-29T08:11:09.161Z,1.75
2019-05-29T08:14:26.221Z,1.60
2019-05-29T08:17:44.056Z,1.62
2019-05-29T08:21:00.889Z,1.57
2019-05-29T08:24:17.662Z,2.08
2019-05-29T08:27:34.271Z,1.32
2019-05-29T08:30:55.815Z,1.67
2019-05-29T08:34:09.751Z,1.52
2019-05-29T08:37:26.398Z,1.35
2019-05-29T08:40:43.082Z,1.55
2019-05-29T08:43:59.977Z,1.12
2019-05-29T08:47:18.325Z,1.25
2019-05-29T08:50:34.941Z,1.27
2019-05-29T08:53:53.415Z,1.10
2019-05-29T08:57:10.379Z,1.37
2019-05-29T09:00:27.742Z,0.98
2019-05-29T09:03:44.876Z,1.47
2019-05-29T09:07:01.554Z,1.15
2019-05-29T09:10:20.412Z,1.35
2019-05-29T09:13:37.057Z,1.20
2019-05-29T09:16:53.775Z,1.30
2019-05-29T09:20:29.463Z,1.40
2019-05-29T09:23:30.593Z,1.20
2019-05-29T09:26:47.358Z,1.42
2019-05-29T09:30:06.109Z,1.17
2019-05-29T09:33:24.527Z,0.98
2019-05-29T09:36:41.872Z,1.20
2019-05-29T09:39:58.588Z,1.10
2019-05-29T09:43:16.934Z,1.00
2019-05-29T09:46:33.535Z,1.17
2019-05-29T09:49:50.140Z,1.40
2019-05-29T09:53:06.732Z,1.55
2019-05-29T09:56:23.581Z,1.80
2019-05-29T09:59:40.362Z,1.70
2019-05-29T10:02:57.318Z,1.12
2019-05-29T10:06:13.982Z,1.30
2019-05-29T10:09:30.751Z,1.05
2019-05-29T10:12:47.553Z,1.92
2019-05-29T10:16:04.713Z,1.22
2019-05-29T10:19:21.498Z,1.10
2019-05-29T10:22:38.123Z,1.15
2019-05-29T10:25:56.395Z,1.60
2019-05-29T10:29:19.690Z,1.12
2019-05-29T10:32:36.485Z,1.70
2019-05-29T10:35:55.364Z,1.40
2019-05-29T10:39:13.038Z,1.50
2019-05-29T10:42:30.380Z,1.40
2019-05-29T10:45:48.000Z,1.32
2019-05-29T10:49:05.225Z,1.60
2019-05-29T10:52:21.833Z,1.50
2019-05-29T10:55:38.589Z,1.35
2019-05-29T10:58:59.605Z,1.40
2019-05-29T11:02:14.861Z,1.17
2019-05-29T11:05:31.479Z,1.40
2019-05-29T11:08:48.292Z,1.30
2019-05-29T11:12:05.114Z,1.82
2019-05-29T11:15:22.667Z,1.20
2019-05-29T11:18:39.266Z,1.07
2019-05-29T11:22:00.978Z,1.00
2019-05-29T11:25:23.746Z,1.17
2019-05-29T11:28:51.197Z,1.17
2019-05-29T11:32:15.383Z,1.30
2019-05-29T11:35:54.836Z,1.27
2019-05-29T11:39:03.921Z,1.10
2019-05-29T11:42:41.556Z,1.00
2019-05-29T11:50:23.611Z,1.03
2019-05-29T11:53:40.539Z,1.20
2019-05-29T11:56:59.268Z,1.02
2019-05-29T12:00:21.763Z,0.95
2019-05-29T12:04:03.994Z,1.17
2019-05-29T12:06:57.583Z,0.80
2019-05-29T12:10:53.776Z,0.85
2019-05-29T12:14:10.720Z,1.02
2019-05-29T12:17:27.678Z,1.07
2019-05-29T12:20:44.514Z,0.90
2019-05-29T12:24:02.319Z,1.17
2019-05-29T12:27:19.314Z,1.50
2019-05-29T12:30:36.774Z,1.00
2019-05-29T12:33:54.882Z,1.10
2019-05-29T12:37:11.859Z,1.00
2019-05-29T12:40:28.462Z,1.20
2019-05-29T12:43:45.229Z,0.93
2019-05-29T12:47:02.005Z,0.80
2019-05-29T12:50:23.231Z,1.10
2019-05-29T12:53:39.853Z,1.20
2019-05-29T12:57:04.276Z,1.35
2019-05-29T13:00:23.619Z,1.05
2019-05-29T13:03:40.631Z,1.00
2019-05-29T13:06:58.637Z,1.10
2019-05-29T13:10:30.223Z,1.00
2019-05-29T13:13:37.936Z,1.02
2019-05-29T13:16:54.800Z,0.80
2019-05-29T13:20:21.008Z,0.70
2019-05-29T13:23:44.284Z,1.20
2019-05-29T13:26:50.638Z,1.10
2019-05-29T13:30:08.366Z,0.82
2019-05-29T13:33:25.392Z,0.90
2019-05-29T13:36:42.343Z,1.20
2019-05-29T13:39:59.995Z,1.00
2019-05-29T13:43:16.730Z,0.93
2019-05-29T13:46:33.569Z,0.72
2019-05-29T13:49:50.206Z,0.95
2019-05-29T13:53:07.609Z,1.37
2019-05-29T13:56:24.524Z,1.27
2019-05-29T13:59:41.287Z,1.12
2019-05-29T14:03:00.403Z,1.42
2019-05-29T14:06:17.176Z,0.80
2019-05-29T14:09:34.176Z,0.90
2019-05-29T14:12:50.922Z,1.00
2019-05-29T14:16:08.492Z,1.35
2019-05-29T14:19:25.518Z,1.02
2019-05-29T14:22:42.260Z,1.10
2019-05-29T14:26:00.409Z,1.27
2019-05-29T14:29:17.229Z,1.02
2019-05-29T14:32:34.059Z,0.75
2019-05-29T14:35:50.837Z,1.22
2019-05-29T14:39:13.926Z,1.00
2019-05-29T14:42:30.997Z,0.80
2019-05-29T14:45:47.851Z,1.35
2019-05-29T14:49:04.496Z,1.07
2019-05-29T14:52:33.237Z,1.22
2019-05-29T14:55:51.565Z,1.15
2019-05-29T14:59:09.330Z,0.98
2019-05-29T15:02:26.837Z,1.20
2019-05-29T15:05:43.554Z,0.93
2019-05-29T15:09:00.562Z,1.15
2019-05-29T15:12:17.313Z,1.30
2019-05-29T15:15:34.445Z,0.90
2019-05-29T15:18:52.144Z,1.25
2019-05-29T15:25:53.718Z,1.22
2019-05-29T15:29:14.388Z,1.00
2019-05-29T15:32:29.095Z,1.00
2019-05-29T15:35:45.820Z,1.30
2019-05-29T15:39:02.548Z,0.65
2019-05-29T15:42:19.403Z,1.07
2019-05-29T15:45:36.094Z,1.05
2019-05-29T15:48:52.734Z,0.90
2019-05-29T15:52:10.965Z,1.02
2019-05-29T15:55:33.701Z,1.20
2019-05-29T15:58:46.812Z,0.90
2019-05-29T16:02:03.607Z,1.00
2019-05-29T16:05:21.122Z,0.95
2019-05-29T16:08:38.125Z,1.37
2019-05-29T16:11:54.784Z,1.12
2019-05-29T16:15:13.241Z,1.30
2019-05-29T16:18:30.278Z,1.10
2019-05-29T16:21:47.040Z,1.00
2019-05-29T16:25:04.687Z,1.10
2019-05-29T16:28:21.656Z,0.93
2019-05-29T16:31:38.378Z,1.17
2019-05-29T16:34:55.014Z,1.10
2019-05-29T16:38:11.900Z,1.35
2019-05-29T16:41:35.299Z,1.07
2019-05-29T16:44:56.886Z,1.27
2019-05-29T16:48:14.587Z,0.80
2019-05-29T16:52:07.767Z,0.72
2019-05-29T16:55:24.810Z,1.07
2019-05-29T16:58:41.529Z,0.90
2019-05-29T17:01:58.348Z,1.35
2019-05-29T17:05:17.724Z,1.00
2019-05-29T17:12:45.706Z,1.37
2019-05-29T17:16:30.202Z,1.37
2019-05-29T17:19:27.317Z,1.87
2019-05-29T17:26:55.397Z,1.10
2019-05-29T17:30:12.796Z,1.27
2019-05-29T17:33:30.333Z,1.70
2019-05-29T17:36:47.044Z,1.15
2019-05-29T17:40:03.885Z,1.45
2019-05-29T17:43:25.386Z,1.60
2019-05-29T17:46:47.021Z,1.20
2019-05-29T17:50:05.237Z,1.15
2019-05-29T17:53:41.250Z,1.20
2019-05-29T17:56:58.815Z,1.90
2019-05-29T18:00:28.129Z,1.62
2019-05-29T18:03:49.843Z,1.37
2019-05-29T18:07:07.223Z,1.62
2019-05-29T18:10:35.510Z,2.12
2019-05-29T18:13:52.369Z,1.70
2019-05-29T18:17:09.289Z,1.50
2019-05-29T18:20:26.368Z,1.52
2019-05-29T18:23:43.058Z,1.72
2019-05-29T18:26:59.758Z,1.65
2019-05-29T18:30:22.320Z,1.60
2019-05-29T18:33:39.394Z,1.65
2019-05-29T18:36:56.068Z,1.32
2019-05-29T18:40:13.099Z,1.32
2019-05-29T18:43:30.294Z,1.50
2019-05-29T18:46:47.116Z,2.00
2019-05-29T18:50:07.456Z,1.40
2019-05-29T18:53:26.985Z,1.70
2019-05-29T18:57:13.271Z,1.70
2019-05-29T19:00:04.558Z,1.93
2019-05-29T19:03:21.722Z,1.55
2019-05-29T19:06:38.587Z,1.67
2019-05-29T19:09:55.251Z,1.72
2019-05-29T19:13:12.126Z,1.45
2019-05-29T19:16:29.973Z,1.67
2019-05-29T19:19:50.121Z,1.50
2019-05-29T19:23:07.059Z,1.45
2019-05-29T19:26:28.773Z,1.52
2019-05-29T19:30:17.587Z,2.02
2019-05-29T19:33:43.340Z,1.90
2019-05-29T19:37:15.109Z,2.02
2019-05-29T19:40:34.620Z,2.10
2019-05-29T19:44:04.260Z,1.65
2019-05-29T19:47:24.920Z,1.50
2019-05-29T19:50:43.301Z,1.70
2019-05-29T19:54:00.007Z,2.12
2019-05-29T19:57:16.749Z,1.90
2019-05-29T20:00:34.305Z,1.50
2019-05-29T20:03:54.926Z,1.67
2019-05-29T20:07:21.705Z,2.20
2019-05-29T20:10:38.359Z,2.08
2019-05-29T20:13:59.949Z,1.67
2019-05-29T20:20:34.536Z,1.62
2019-05-29T20:24:00.630Z,1.90
2019-05-29T20:27:18.074Z,1.80
2019-05-29T20:30:34.789Z,1.62
2019-05-29T20:33:53.116Z,1.80
2019-05-29T20:37:32.458Z,1.82
2019-05-29T20:40:49.738Z,1.75
2019-05-29T20:44:06.801Z,2.15
2019-05-29T20:47:23.571Z,2.27
2019-05-29T20:50:40.170Z,2.40
2019-05-29T20:53:56.958Z,2.70
2019-05-29T20:57:13.578Z,2.20
2019-05-29T21:00:30.436Z,1.72
2019-05-29T21:03:47.409Z,1.52
2019-05-29T21:07:09.076Z,1.90
2019-05-29T21:10:26.040Z,1.98
2019-05-29T21:13:43.663Z,1.82
2019-05-29T21:17:00.762Z,1.72
2019-05-29T21:20:18.267Z,2.00
2019-05-29T21:23:34.874Z,1.72
2019-05-29T21:26:51.579Z,1.70
2019-05-29T21:30:08.200Z,1.85
2019-05-29T21:33:25.238Z,2.00
2019-05-29T21:36:42.229Z,2.77
2019-05-29T21:39:58.930Z,2.62
2019-05-29T21:43:17.243Z,2.20
2019-05-29T21:46:33.955Z,2.02
2019-05-29T21:49:50.879Z,1.70
2019-05-29T21:53:07.648Z,1.87
2019-05-29T21:56:24.379Z,2.27
2019-05-29T21:59:41.654Z,2.02
2019-05-29T22:02:58.351Z,1.57
2019-05-29T22:06:15.031Z,1.52
2019-05-29T22:09:31.771Z,1.77
2019-05-29T22:12:48.742Z,2.08
2019-05-29T22:16:05.404Z,1.90
2019-05-29T22:19:22.085Z,1.80
2019-05-29T22:22:38.760Z,1.80
2019-05-29T22:25:55.441Z,1.72
2019-05-29T22:29:17.953Z,1.90
2019-05-29T22:32:30.725Z,2.22
2019-05-29T22:35:47.330Z,1.47
2019-05-29T22:39:04.814Z,1.80
2019-05-29T22:42:21.596Z,1.70
2019-05-29T22:45:38.243Z,1.65
2019-05-29T22:48:55.857Z,1.42
2019-05-29T22:52:12.728Z,1.70
2019-05-29T22:55:29.343Z,1.95
2019-05-29T22:58:45.975Z,1.67
2019-05-29T23:02:02.992Z,1.47
2019-05-29T23:05:19.788Z,1.60
2019-05-29T23:08:36.398Z,1.57
2019-05-29T23:11:54.148Z,2.02
2019-05-29T23:15:11.359Z,2.08
2019-05-29T23:18:27.959Z,1.52
2019-05-29T23:21:44.830Z,1.82
2019-05-29T23:25:01.500Z,1.57
2019-05-29T23:28:18.264Z,1.65
2019-05-29T23:31:34.944Z,1.72
2019-05-29T23:34:52.887Z,1.50
2019-05-29T23:38:09.711Z,1.75
2019-05-29T23:41:26.327Z,1.92
2019-05-29T23:44:43.059Z,1.60
2019-05-29T23:47:59.691Z,1.52
2019-05-29T23:51:16.379Z,1.85
2019-05-29T23:54:33.034Z,1.40
2019-05-29T23:57:49.679Z,1.80
